createdAt,value
2023-02-20T00:00:37.753Z,2.95
2023-02-20T00:03:06.004Z,5.50
2023-02-20T00:05:33.697Z,5.18
2023-02-20T00:08:01.274Z,4.68
2023-02-20T00:10:29.238Z,7.55
2023-02-20T00:12:56.793Z,4.43
2023-02-20T00:15:26.010Z,1.98
2023-02-20T00:17:53.587Z,3.13
2023-02-20T00:20:23.274Z,2.42
2023-02-20T00:22:51.382Z,4.38
2023-02-20T00:25:20.781Z,5.20
2023-02-20T00:27:48.792Z,4.97
2023-02-20T00:30:18.521Z,3.25
2023-02-20T00:32:49.235Z,5.13
2023-02-20T00:35:18.249Z,4.40
2023-02-20T00:37:46.589Z,4.22
2023-02-20T00:40:15.830Z,4.20
2023-02-20T00:42:43.707Z,3.55
2023-02-20T00:45:11.919Z,4.50
2023-02-20T00:47:39.749Z,3.78
2023-02-20T00:50:10.756Z,3.83
2023-02-20T00:52:39.419Z,6.80
2023-02-20T00:55:07.952Z,3.80
2023-02-20T00:57:35.520Z,4.75
2023-02-20T01:00:03.169Z,7.68
2023-02-20T01:02:30.731Z,4.15
2023-02-20T01:04:58.259Z,3.53
2023-02-20T01:07:27.116Z,4.40
2023-02-20T01:09:54.658Z,4.20
2023-02-20T01:12:22.282Z,3.92
2023-02-20T01:14:50.115Z,4.78
2023-02-20T01:17:17.616Z,3.40
2023-02-20T01:19:45.603Z,4.93
2023-02-20T01:22:13.220Z,4.88
2023-02-20T01:24:43.444Z,4.70
2023-02-20T01:27:11.532Z,5.22
2023-02-20T01:29:39.116Z,4.30
2023-02-20T01:32:06.784Z,4.38
2023-02-20T01:34:34.460Z,2.83
2023-02-20T01:37:02.017Z,3.35
2023-02-20T01:39:31.232Z,5.13
2023-02-20T01:42:02.959Z,5.15
2023-02-20T01:44:33.332Z,3.72
2023-02-20T01:47:01.770Z,3.55
2023-02-20T01:49:35.141Z,4.03
2023-02-20T01:52:09.849Z,4.72
2023-02-20T01:54:41.950Z,3.95
2023-02-20T01:57:15.084Z,5.97
2023-02-20T01:59:44.481Z,6.53
2023-02-20T02:02:14.926Z,2.63
2023-02-20T02:04:45.037Z,4.57
2023-02-20T02:07:13.183Z,4.05
2023-02-20T02:09:46.626Z,3.90
2023-02-20T02:12:15.915Z,3.78
2023-02-20T02:14:43.495Z,3.65
2023-02-20T02:17:43.049Z,4.57
2023-02-20T02:20:59.525Z,8.18
2023-02-20T02:24:11.774Z,4.05
2023-02-20T02:27:13.646Z,4.78
2023-02-20T02:29:57.062Z,4.65
2023-02-20T02:32:59.131Z,5.72
2023-02-20T02:36:08.898Z,4.70
2023-02-20T02:38:43.803Z,6.90
2023-02-20T02:41:19.095Z,4.90
2023-02-20T02:43:54.942Z,4.72
2023-02-20T02:46:28.489Z,6.00
2023-02-20T02:49:04.000Z,5.65
2023-02-20T02:51:36.604Z,5.70
2023-02-20T02:54:10.877Z,8.18
2023-02-20T02:56:41.876Z,6.88
2023-02-20T02:59:13.467Z,3.78
2023-02-20T03:01:45.423Z,7.40
2023-02-20T03:04:14.592Z,7.63
2023-02-20T03:06:46.306Z,4.72
2023-02-20T03:09:18.308Z,4.85
2023-02-20T03:11:47.439Z,6.90
2023-02-20T03:14:36.166Z,6.15
2023-02-20T03:17:10.275Z,5.30
2023-02-20T03:19:43.739Z,9.07
2023-02-20T03:22:16.822Z,6.90
2023-02-20T03:24:58.456Z,5.95
2023-02-20T03:27:38.852Z,5.55
2023-02-20T03:30:13.307Z,5.88
2023-02-20T03:33:00.551Z,8.13
2023-02-20T03:35:48.406Z,7.20
2023-02-20T03:38:37.115Z,6.60
2023-02-20T03:41:25.320Z,6.82
2023-02-20T03:43:54.169Z,6.53
2023-02-20T03:46:24.846Z,10.75
2023-02-20T03:48:56.195Z,6.47
2023-02-20T03:51:25.592Z,7.65
2023-02-20T03:54:02.708Z,7.70
2023-02-20T03:56:36.315Z,6.00
2023-02-20T03:59:09.976Z,6.47
2023-02-20T04:01:39.496Z,5.93
2023-02-20T04:04:08.447Z,7.32
2023-02-20T04:06:37.578Z,6.90
2023-02-20T04:09:07.953Z,6.43
2023-02-20T04:11:44.828Z,7.80
2023-02-20T04:14:16.219Z,5.95
2023-02-20T04:16:48.517Z,7.32
2023-02-20T04:19:16.666Z,7.30
2023-02-20T04:21:49.780Z,6.97
2023-02-20T04:24:21.848Z,6.70
2023-02-20T04:26:51.159Z,6.93
2023-02-20T04:29:19.417Z,8.52
2023-02-20T04:31:47.754Z,8.00
2023-02-20T04:34:16.478Z,8.70
2023-02-20T04:36:44.202Z,9.40
2023-02-20T04:39:11.726Z,9.10
2023-02-20T04:41:39.363Z,10.68
2023-02-20T04:44:26.337Z,12.10
2023-02-20T04:46:56.333Z,9.48
2023-02-20T04:49:23.984Z,8.52
2023-02-20T04:51:54.762Z,11.95
2023-02-20T04:54:23.062Z,10.82
2023-02-20T04:56:50.916Z,8.98
2023-02-20T04:59:20.486Z,9.93
2023-02-20T05:01:51.773Z,12.30
2023-02-20T05:04:19.884Z,12.18
2023-02-20T05:06:49.740Z,9.85
2023-02-20T05:09:17.778Z,10.18
2023-02-20T05:11:45.366Z,7.93
2023-02-20T05:14:13.426Z,10.80
2023-02-20T05:16:45.512Z,10.02
2023-02-20T05:19:14.356Z,10.32
2023-02-20T05:22:06.667Z,12.93
2023-02-20T05:24:34.227Z,9.07
2023-02-20T05:27:01.763Z,11.40
2023-02-20T05:29:29.311Z,10.45
2023-02-20T05:31:58.173Z,11.15
2023-02-20T05:34:25.995Z,13.60
2023-02-20T05:36:54.199Z,11.70
2023-02-20T05:39:22.259Z,10.57
2023-02-20T05:41:50.210Z,11.23
2023-02-20T05:44:17.824Z,10.93
2023-02-20T05:46:45.506Z,9.35
2023-02-20T05:49:14.695Z,13.05
2023-02-20T05:51:42.203Z,13.43
2023-02-20T05:54:09.991Z,12.32
2023-02-20T05:56:37.519Z,11.63
2023-02-20T05:59:05.016Z,16.30
2023-02-20T06:01:33.089Z,14.90
2023-02-20T06:04:01.738Z,11.75
2023-02-20T06:06:34.701Z,11.50
2023-02-20T06:09:02.846Z,12.80
2023-02-20T06:11:30.465Z,11.25
2023-02-20T06:13:58.823Z,13.80
2023-02-20T06:16:28.277Z,14.00
2023-02-20T06:18:56.665Z,17.48
2023-02-20T06:21:25.340Z,10.43
2023-02-20T06:23:55.770Z,14.20
2023-02-20T06:26:24.233Z,14.73
2023-02-20T06:28:53.134Z,14.93
2023-02-20T06:31:25.326Z,15.90
2023-02-20T06:33:53.176Z,12.75
2023-02-20T06:36:23.669Z,13.55
2023-02-20T06:38:51.298Z,13.07
2023-02-20T06:41:20.736Z,12.95
2023-02-20T06:43:48.486Z,15.45
2023-02-20T06:46:16.307Z,13.73
2023-02-20T06:48:49.029Z,15.20
2023-02-20T06:51:17.767Z,13.20
2023-02-20T06:53:45.491Z,15.23
2023-02-20T06:56:18.573Z,13.13
2023-02-20T06:58:48.948Z,14.20
2023-02-20T07:01:17.171Z,13.43
2023-02-20T07:03:45.873Z,13.05
2023-02-20T07:06:13.915Z,14.10
2023-02-20T07:08:41.630Z,16.38
2023-02-20T07:11:09.366Z,13.73
2023-02-20T07:13:36.945Z,16.08
2023-02-20T07:16:06.536Z,16.25
2023-02-20T07:18:34.205Z,20.83
2023-02-20T07:21:01.948Z,16.33
2023-02-20T07:23:29.565Z,15.45
2023-02-20T07:25:57.520Z,15.68
2023-02-20T07:28:25.118Z,19.65
2023-02-20T07:30:52.757Z,15.02
2023-02-20T07:33:21.722Z,22.75
2023-02-20T07:35:49.253Z,18.10
2023-02-20T07:38:17.036Z,15.85
2023-02-20T07:40:44.630Z,16.30
2023-02-20T07:43:12.181Z,19.15
2023-02-20T07:45:40.085Z,20.98
2023-02-20T07:48:07.685Z,20.52
2023-02-20T07:50:36.639Z,18.25
2023-02-20T07:53:04.304Z,20.30
2023-02-20T07:55:32.931Z,21.92
2023-02-20T07:58:00.502Z,20.52
2023-02-20T08:00:28.813Z,20.05
2023-02-20T08:02:56.476Z,20.52
2023-02-20T08:05:24.022Z,20.23
2023-02-20T08:07:53.746Z,20.02
2023-02-20T08:10:24.347Z,19.17
2023-02-20T08:12:53.109Z,22.65
2023-02-20T08:15:21.909Z,24.58
2023-02-20T08:17:52.255Z,21.45
2023-02-20T08:20:21.505Z,21.40
2023-02-20T08:22:51.007Z,20.20
2023-02-20T08:25:20.048Z,26.45
2023-02-20T08:27:49.779Z,23.40
2023-02-20T08:30:24.722Z,21.05
2023-02-20T08:32:52.546Z,22.40
2023-02-20T08:35:21.222Z,24.95
2023-02-20T08:37:48.833Z,24.23
2023-02-20T08:40:16.567Z,23.25
2023-02-20T08:42:45.566Z,26.33
2023-02-20T08:45:15.593Z,24.00
2023-02-20T08:47:43.144Z,25.55
2023-02-20T08:50:11.185Z,23.38
2023-02-20T08:52:38.693Z,25.33
2023-02-20T08:55:06.832Z,23.80
2023-02-20T08:57:34.334Z,27.33
2023-02-20T09:00:03.275Z,24.05
2023-02-20T09:02:31.041Z,26.75
2023-02-20T09:04:58.958Z,25.48
2023-02-20T09:07:26.587Z,25.02
2023-02-20T09:09:54.284Z,27.75
2023-02-20T09:12:22.152Z,30.52
2023-02-20T09:14:49.721Z,28.83
2023-02-20T09:17:18.850Z,24.77
2023-02-20T09:19:46.454Z,26.17
2023-02-20T09:22:14.227Z,26.33
2023-02-20T09:24:41.938Z,35.78
2023-02-20T09:27:10.034Z,26.15
2023-02-20T09:29:41.015Z,30.27
2023-02-20T09:32:08.791Z,29.83
2023-02-20T09:34:38.112Z,28.60
2023-02-20T09:37:06.055Z,29.92
2023-02-20T09:39:33.645Z,31.02
2023-02-20T09:42:16.309Z,31.52
2023-02-20T09:44:52.602Z,29.50
2023-02-20T09:47:34.950Z,26.83
2023-02-20T09:50:07.487Z,30.02
2023-02-20T09:52:39.868Z,29.00
2023-02-20T09:55:11.750Z,33.53
2023-02-20T09:57:40.981Z,25.48
2023-02-20T10:00:12.732Z,29.98
2023-02-20T10:02:43.303Z,34.58
2023-02-20T10:05:18.347Z,23.73
2023-02-20T10:07:47.263Z,27.08
2023-02-20T10:10:20.204Z,26.08
2023-02-20T10:13:01.153Z,26.50
2023-02-20T10:15:36.234Z,28.13
2023-02-20T10:18:16.646Z,26.33
2023-02-20T10:20:53.777Z,24.52
2023-02-20T10:23:33.267Z,27.05
2023-02-20T10:26:05.677Z,21.23
2023-02-20T10:28:34.180Z,24.60
2023-02-20T10:31:08.665Z,19.67
2023-02-20T10:33:42.431Z,22.80
2023-02-20T10:36:14.788Z,17.35
2023-02-20T10:38:46.457Z,18.00
2023-02-20T10:41:18.471Z,19.30
2023-02-20T10:43:50.843Z,13.90
2023-02-20T10:46:24.266Z,16.77
2023-02-20T10:48:55.686Z,21.40
2023-02-20T10:51:29.536Z,15.43
2023-02-20T10:54:02.184Z,15.05
2023-02-20T10:56:34.425Z,12.35
2023-02-20T10:59:09.331Z,14.40
2023-02-20T11:01:38.472Z,12.50
2023-02-20T11:04:11.406Z,11.80
2023-02-20T11:06:43.841Z,13.18
2023-02-20T11:09:11.604Z,13.00
2023-02-20T11:11:42.392Z,12.15
2023-02-20T11:14:14.276Z,11.13
2023-02-20T11:16:46.799Z,14.10
2023-02-20T11:19:19.899Z,15.40
2023-02-20T11:21:50.421Z,15.05
2023-02-20T11:24:35.688Z,10.15
2023-02-20T11:27:11.219Z,16.27
2023-02-20T11:29:52.177Z,12.85
2023-02-20T11:32:32.161Z,9.68
2023-02-20T11:35:23.842Z,9.65
2023-02-20T11:38:30.668Z,12.23
2023-02-20T11:41:06.979Z,10.27
2023-02-20T11:43:36.027Z,7.93
2023-02-20T11:46:14.696Z,10.10
2023-02-20T11:49:00.521Z,10.23
2023-02-20T11:51:37.142Z,10.82
2023-02-20T11:54:11.218Z,8.40
2023-02-20T11:56:38.839Z,7.22
2023-02-20T11:59:29.809Z,8.50
2023-02-20T12:02:12.850Z,8.90
2023-02-20T12:04:40.452Z,11.18
2023-02-20T12:07:27.847Z,7.85
2023-02-20T12:10:00.009Z,6.63
2023-02-20T12:12:29.650Z,10.85
2023-02-20T12:14:57.690Z,9.98
2023-02-20T12:17:32.733Z,8.25
2023-02-20T12:20:08.176Z,9.23
2023-02-20T12:22:37.689Z,10.85
2023-02-20T12:25:19.244Z,8.98
2023-02-20T12:28:03.322Z,5.88
2023-02-20T12:30:44.197Z,10.98
2023-02-20T12:33:43.850Z,9.48
2023-02-20T12:36:22.676Z,7.20
2023-02-20T12:38:56.250Z,8.40
2023-02-20T12:41:34.775Z,6.20
2023-02-20T12:44:21.116Z,4.72
2023-02-20T12:46:59.269Z,8.85
2023-02-20T12:50:03.669Z,11.65
2023-02-20T12:52:41.660Z,8.52
2023-02-20T12:55:19.840Z,7.88
2023-02-20T12:57:54.804Z,6.95
2023-02-20T13:00:33.048Z,6.72
2023-02-20T13:03:07.483Z,6.57
2023-02-20T13:05:40.686Z,6.93
2023-02-20T13:08:12.977Z,6.13
2023-02-20T13:10:51.747Z,5.95
2023-02-20T13:13:20.936Z,7.90
2023-02-20T13:15:57.805Z,5.25
2023-02-20T13:18:32.952Z,7.95
2023-02-20T13:21:04.562Z,9.23
2023-02-20T13:23:34.774Z,4.57
2023-02-20T13:26:02.896Z,7.75
2023-02-20T13:28:45.925Z,7.88
2023-02-20T13:31:17.923Z,8.48
2023-02-20T13:33:47.390Z,7.70
2023-02-20T13:36:38.023Z,13.13
2023-02-20T13:39:27.284Z,8.57
2023-02-20T13:42:02.354Z,12.02
2023-02-20T13:44:46.997Z,12.05
2023-02-20T13:47:36.391Z,5.32
2023-02-20T13:50:25.433Z,8.60
2023-02-20T13:52:56.933Z,7.93
2023-02-20T13:55:27.283Z,7.47
2023-02-20T13:57:57.061Z,5.32
2023-02-20T14:00:34.873Z,9.70
2023-02-20T14:03:02.460Z,7.25
2023-02-20T14:05:32.298Z,7.40
2023-02-20T14:08:00.848Z,8.10
2023-02-20T14:10:30.530Z,5.80
2023-02-20T14:13:01.675Z,8.77
2023-02-20T14:15:33.410Z,7.43
2023-02-20T14:18:02.263Z,9.95
2023-02-20T14:20:35.492Z,8.75
2023-02-20T14:23:20.481Z,6.85
2023-02-20T14:26:12.793Z,9.50
2023-02-20T14:28:47.035Z,8.35
2023-02-20T14:31:24.463Z,11.73
2023-02-20T14:33:53.615Z,10.50
2023-02-20T14:36:34.005Z,7.68
2023-02-20T14:39:25.133Z,9.15
2023-02-20T14:41:55.031Z,6.07
2023-02-20T14:44:24.200Z,10.07
2023-02-20T14:46:56.051Z,8.15
2023-02-20T14:49:26.792Z,9.73
2023-02-20T14:52:05.604Z,6.75
2023-02-20T14:54:33.179Z,9.80
2023-02-20T14:57:03.342Z,6.20
2023-02-20T14:59:34.164Z,10.50
2023-02-20T15:02:16.658Z,5.93
2023-02-20T15:04:50.576Z,9.45
2023-02-20T15:07:21.545Z,7.03
2023-02-20T15:09:51.905Z,5.82
2023-02-20T15:12:22.333Z,9.73
2023-02-20T15:14:57.879Z,6.65
2023-02-20T15:17:29.699Z,9.77
2023-02-20T15:19:57.847Z,8.43
2023-02-20T15:22:32.071Z,4.75
2023-02-20T15:25:27.717Z,11.18
2023-02-20T15:28:07.088Z,6.47
2023-02-20T15:30:35.472Z,7.80
2023-02-20T15:33:04.471Z,11.38
2023-02-20T15:35:33.184Z,12.05
2023-02-20T15:38:03.487Z,9.45
2023-02-20T15:40:32.990Z,9.02
2023-02-20T15:43:04.625Z,9.52
2023-02-20T15:45:41.317Z,10.65
2023-02-20T15:48:11.395Z,8.63
2023-02-20T15:50:38.977Z,7.28
2023-02-20T15:53:08.529Z,8.80
2023-02-20T15:55:36.648Z,10.18
2023-02-20T15:58:08.758Z,15.15
2023-02-20T16:00:38.798Z,10.10
2023-02-20T16:03:06.419Z,10.57
2023-02-20T16:05:35.453Z,15.85
2023-02-20T16:08:03.147Z,14.43
2023-02-20T16:10:30.929Z,11.98
2023-02-20T16:13:00.604Z,12.02
2023-02-20T16:15:28.634Z,12.60
2023-02-20T16:17:56.667Z,13.80
2023-02-20T16:20:28.606Z,12.20
2023-02-20T16:22:57.742Z,11.88
2023-02-20T16:25:25.617Z,12.20
2023-02-20T16:27:54.164Z,9.35
2023-02-20T16:30:33.315Z,11.88
2023-02-20T16:33:02.037Z,11.57
2023-02-20T16:35:29.635Z,13.13
2023-02-20T16:37:58.552Z,17.08
2023-02-20T16:40:26.099Z,11.43
2023-02-20T16:42:53.643Z,9.43
2023-02-20T16:45:21.541Z,9.90
2023-02-20T16:47:50.554Z,8.45
2023-02-20T16:50:20.556Z,7.45
2023-02-20T16:52:50.779Z,8.70
2023-02-20T16:55:21.502Z,8.07
2023-02-20T16:57:49.682Z,7.82
2023-02-20T17:00:19.556Z,10.85
2023-02-20T17:02:47.508Z,7.80
2023-02-20T17:05:16.257Z,10.30
2023-02-20T17:07:43.940Z,10.02
2023-02-20T17:10:11.683Z,10.07
2023-02-20T17:12:40.534Z,12.23
2023-02-20T17:15:09.701Z,8.70
2023-02-20T17:17:38.536Z,9.15
2023-02-20T17:20:06.889Z,8.55
2023-02-20T17:22:34.443Z,11.23
2023-02-20T17:25:03.505Z,10.80
2023-02-20T17:27:31.074Z,8.35
2023-02-20T17:30:00.178Z,9.30
2023-02-20T17:32:28.286Z,9.85
2023-02-20T17:34:55.913Z,7.55
2023-02-20T17:37:23.624Z,5.60
2023-02-20T17:39:51.234Z,7.85
2023-02-20T17:42:18.807Z,8.73
2023-02-20T17:44:46.418Z,6.13
2023-02-20T17:47:15.452Z,9.15
2023-02-20T17:49:43.019Z,6.80
2023-02-20T17:52:11.354Z,9.32
2023-02-20T17:54:41.172Z,6.03
2023-02-20T17:57:08.753Z,7.72
2023-02-20T17:59:38.822Z,7.05
2023-02-20T18:02:07.786Z,7.43
2023-02-20T18:04:37.137Z,11.27
2023-02-20T18:07:05.688Z,7.55
2023-02-20T18:09:34.043Z,10.18
2023-02-20T18:12:02.622Z,9.05
2023-02-20T18:14:30.766Z,5.88
2023-02-20T18:16:58.375Z,10.23
2023-02-20T18:19:26.077Z,12.55
2023-02-20T18:21:54.994Z,11.60
2023-02-20T18:24:25.144Z,9.50
2023-02-20T18:26:53.887Z,10.00
2023-02-20T18:29:22.421Z,10.88
2023-02-20T18:31:50.378Z,13.07
2023-02-20T18:34:19.137Z,10.70
2023-02-20T18:36:46.803Z,9.65
2023-02-20T18:39:15.771Z,12.95
2023-02-20T18:41:49.971Z,13.88
2023-02-20T18:44:17.782Z,12.57
2023-02-20T18:46:45.340Z,10.75
2023-02-20T18:49:13.692Z,11.88
2023-02-20T18:51:44.916Z,11.35
2023-02-20T18:54:18.975Z,15.77
2023-02-20T18:56:47.841Z,11.02
2023-02-20T18:59:16.155Z,11.98
2023-02-20T19:01:44.936Z,12.77
2023-02-20T19:04:13.689Z,12.02
2023-02-20T19:06:43.960Z,11.27
2023-02-20T19:09:13.494Z,8.57
2023-02-20T19:11:42.450Z,10.10
2023-02-20T19:14:10.124Z,13.65
2023-02-20T19:16:38.091Z,13.00
2023-02-20T19:19:07.727Z,13.85
2023-02-20T19:21:35.315Z,14.93
2023-02-20T19:24:03.982Z,10.40
2023-02-20T19:26:31.537Z,13.27
2023-02-20T19:31:33.089Z,9.82
2023-02-20T19:34:00.741Z,9.00
2023-02-20T19:36:28.320Z,9.35
2023-02-20T19:38:55.921Z,9.73
2023-02-20T19:41:23.556Z,14.57
2023-02-20T19:43:51.276Z,10.20
2023-02-20T19:46:22.955Z,9.25
2023-02-20T19:48:51.464Z,11.82
2023-02-20T19:51:20.927Z,7.28
2023-02-20T19:53:49.188Z,9.57
2023-02-20T19:56:16.961Z,9.45
2023-02-20T19:58:44.830Z,7.85
2023-02-20T20:01:14.991Z,5.80
2023-02-20T20:03:44.712Z,8.05
2023-02-20T20:06:15.207Z,9.38
2023-02-20T20:09:01.812Z,8.27
2023-02-20T20:11:30.818Z,7.20
2023-02-20T20:13:58.389Z,8.45
2023-02-20T20:16:26.040Z,10.20
2023-02-20T20:18:55.179Z,6.65
2023-02-20T20:21:23.473Z,6.25
2023-02-20T20:23:53.742Z,6.68
2023-02-20T20:26:25.808Z,4.05
2023-02-20T20:28:53.813Z,4.47
2023-02-20T20:31:22.442Z,5.45
2023-02-20T20:33:50.593Z,4.25
2023-02-20T20:36:19.798Z,6.28
2023-02-20T20:38:48.950Z,7.05
2023-02-20T20:41:16.829Z,11.60
2023-02-20T20:43:44.934Z,7.93
2023-02-20T20:46:14.235Z,9.85
2023-02-20T20:48:42.328Z,5.68
2023-02-20T20:51:13.010Z,7.22
2023-02-20T20:53:42.052Z,6.18
2023-02-20T20:56:10.810Z,7.97
2023-02-20T20:58:38.366Z,9.25
2023-02-20T21:01:06.626Z,6.60
2023-02-20T21:03:34.143Z,6.57
2023-02-20T21:06:01.807Z,7.70
2023-02-20T21:08:30.473Z,5.85
2023-02-20T21:10:59.369Z,6.40
2023-02-20T21:13:26.999Z,7.22
2023-02-20T21:15:54.604Z,8.60
2023-02-20T21:18:22.150Z,7.45
2023-02-20T21:20:49.717Z,5.43
2023-02-20T21:23:17.400Z,5.65
2023-02-20T21:25:44.917Z,6.28
2023-02-20T21:28:13.817Z,7.53
2023-02-20T21:30:42.156Z,5.07
2023-02-20T21:33:09.874Z,6.80
2023-02-20T21:35:37.435Z,5.10
2023-02-20T21:38:05.197Z,6.15
2023-02-20T21:40:33.123Z,7.07
2023-02-20T21:43:18.514Z,6.00
2023-02-20T21:45:49.675Z,6.15
2023-02-20T21:48:17.740Z,6.35
2023-02-20T21:50:45.295Z,5.85
2023-02-20T21:53:16.674Z,5.20
2023-02-20T21:55:44.585Z,6.00
2023-02-20T21:58:12.271Z,7.63
2023-02-20T22:00:38.783Z,5.30
2023-02-20T22:03:06.727Z,8.57
2023-02-20T22:05:33.259Z,5.00
2023-02-20T22:08:18.610Z,5.30
2023-02-20T22:11:03.854Z,5.38
2023-02-20T22:13:49.117Z,4.60
2023-02-20T22:16:37.021Z,6.38
2023-02-20T22:19:23.862Z,4.95
2023-02-20T22:22:09.314Z,3.63
2023-02-20T22:24:54.440Z,3.33
2023-02-20T22:27:39.831Z,6.10
2023-02-20T22:30:25.790Z,5.30
2023-02-20T22:33:11.572Z,6.30
2023-02-20T22:35:58.174Z,5.55
2023-02-20T22:38:43.434Z,4.75
2023-02-20T22:41:28.677Z,7.25
2023-02-20T22:44:14.101Z,6.85
2023-02-20T22:46:59.582Z,3.95
2023-02-20T22:49:44.662Z,6.38
2023-02-20T22:52:31.323Z,9.77
2023-02-20T22:55:16.708Z,5.50
2023-02-20T22:58:02.172Z,2.85
2023-02-20T23:00:47.310Z,3.83
2023-02-20T23:03:32.563Z,6.47
2023-02-20T23:06:19.822Z,6.40
2023-02-20T23:09:08.077Z,2.70
2023-02-20T23:11:54.098Z,5.45
2023-02-20T23:14:39.579Z,8.80
2023-02-20T23:17:35.755Z,4.57
2023-02-20T23:20:23.436Z,4.82
2023-02-20T23:23:08.921Z,7.40
2023-02-20T23:25:55.497Z,6.03
2023-02-20T23:28:40.901Z,6.97
2023-02-20T23:31:26.404Z,6.93
2023-02-20T23:34:11.703Z,5.38
2023-02-20T23:36:56.856Z,5.07
2023-02-20T23:39:42.252Z,5.53
2023-02-20T23:42:29.051Z,4.93
2023-02-20T23:45:14.351Z,3.17
2023-02-20T23:47:59.720Z,5.18
2023-02-20T23:50:47.220Z,4.30
2023-02-20T23:53:32.883Z,4.55
2023-02-20T23:56:18.471Z,6.15
2023-02-20T23:59:05.199Z,5.13
